sensor_id;sensor_type;location;lat;lon;timestamp;P1;durP1;ratioP1;P2;durP2;ratioP2
2866;SDS011;1441;48.886;8.728;2022-07-23T00:00:54;7.47;;;6.13;;
2866;SDS011;1441;48.886;8.728;2022-07-23T00:03:20;7.33;;;6.60;;
2866;SDS011;1441;48.886;8.728;2022-07-23T00:05:46;9.37;;;5.90;;
2866;SDS011;1441;48.886;8.728;2022-07-23T00:08:11;6.63;;;6.03;;
2866;SDS011;1441;48.886;8.728;2022-07-23T00:10:37;6.30;;;5.70;;
2866;SDS011;1441;48.886;8.728;2022-07-23T00:13:03;6.37;;;5.77;;
2866;SDS011;1441;48.886;8.728;2022-07-23T00:15:29;6.57;;;5.87;;
2866;SDS011;1441;48.886;8.728;2022-07-23T00:17:54;5.87;;;5.37;;
2866;SDS011;1441;48.886;8.728;2022-07-23T00:20:20;7.97;;;6.10;;
2866;SDS011;1441;48.886;8.728;2022-07-23T00:22:49;6.80;;;6.07;;
2866;SDS011;1441;48.886;8.728;2022-07-23T00:25:16;5.50;;;5.10;;
2866;SDS011;1441;48.886;8.728;2022-07-23T00:27:42;6.20;;;5.70;;
2866;SDS011;1441;48.886;8.728;2022-07-23T00:30:08;6.63;;;6.13;;
2866;SDS011;1441;48.886;8.728;2022-07-23T00:32:54;5.93;;;5.33;;
2866;SDS011;1441;48.886;8.728;2022-07-23T00:35:22;6.40;;;5.87;;
2866;SDS011;1441;48.886;8.728;2022-07-23T00:37:51;9.67;;;6.10;;
2866;SDS011;1441;48.886;8.728;2022-07-23T00:40:17;6.20;;;5.70;;
2866;SDS011;1441;48.886;8.728;2022-07-23T00:42:43;6.90;;;6.30;;
2866;SDS011;1441;48.886;8.728;2022-07-23T00:45:09;8.10;;;6.40;;
2866;SDS011;1441;48.886;8.728;2022-07-23T00:47:35;6.33;;;5.83;;
2866;SDS011;1441;48.886;8.728;2022-07-23T00:50:01;7.60;;;6.90;;
2866;SDS011;1441;48.886;8.728;2022-07-23T00:52:28;7.13;;;6.10;;
2866;SDS011;1441;48.886;8.728;2022-07-23T00:54:54;6.57;;;6.00;;
2866;SDS011;1441;48.886;8.728;2022-07-23T00:57:20;7.37;;;6.70;;
2866;SDS011;1441;48.886;8.728;2022-07-23T00:59:46;6.97;;;6.37;;
2866;SDS011;1441;48.886;8.728;2022-07-23T01:02:11;7.00;;;6.17;;
2866;SDS011;1441;48.886;8.728;2022-07-23T01:04:37;7.20;;;6.50;;
2866;SDS011;1441;48.886;8.728;2022-07-23T01:07:03;6.97;;;6.37;;
2866;SDS011;1441;48.886;8.728;2022-07-23T01:09:29;7.03;;;5.90;;
2866;SDS011;1441;48.886;8.728;2022-07-23T01:11:55;7.63;;;6.53;;
2866;SDS011;1441;48.886;8.728;2022-07-23T01:14:22;7.67;;;6.40;;
2866;SDS011;1441;48.886;8.728;2022-07-23T01:16:48;5.77;;;5.23;;
2866;SDS011;1441;48.886;8.728;2022-07-23T01:19:14;6.87;;;6.27;;
2866;SDS011;1441;48.886;8.728;2022-07-23T01:21:45;6.17;;;5.67;;
2866;SDS011;1441;48.886;8.728;2022-07-23T01:24:13;6.73;;;5.93;;
2866;SDS011;1441;48.886;8.728;2022-07-23T01:26:41;6.20;;;5.63;;
2866;SDS011;1441;48.886;8.728;2022-07-23T01:29:08;5.60;;;5.10;;
2866;SDS011;1441;48.886;8.728;2022-07-23T01:31:33;6.43;;;5.83;;
2866;SDS011;1441;48.886;8.728;2022-07-23T01:33:59;6.43;;;5.83;;
2866;SDS011;1441;48.886;8.728;2022-07-23T01:36:25;7.20;;;5.43;;
2866;SDS011;1441;48.886;8.728;2022-07-23T01:38:50;5.33;;;4.93;;
2866;SDS011;1441;48.886;8.728;2022-07-23T01:41:16;6.10;;;5.60;;
2866;SDS011;1441;48.886;8.728;2022-07-23T01:43:42;6.47;;;5.67;;
2866;SDS011;1441;48.886;8.728;2022-07-23T01:46:08;5.40;;;5.00;;
2866;SDS011;1441;48.886;8.728;2022-07-23T01:48:34;6.10;;;5.30;;
2866;SDS011;1441;48.886;8.728;2022-07-23T01:50:59;5.30;;;4.90;;
2866;SDS011;1441;48.886;8.728;2022-07-23T01:53:25;6.60;;;4.70;;
2866;SDS011;1441;48.886;8.728;2022-07-23T01:55:51;5.67;;;5.03;;
2866;SDS011;1441;48.886;8.728;2022-07-23T01:58:16;5.10;;;4.80;;
2866;SDS011;1441;48.886;8.728;2022-07-23T02:00:42;5.67;;;5.07;;
2866;SDS011;1441;48.886;8.728;2022-07-23T02:03:07;6.90;;;5.00;;
2866;SDS011;1441;48.886;8.728;2022-07-23T02:05:33;8.03;;;4.80;;
2866;SDS011;1441;48.886;8.728;2022-07-23T02:07:59;9.70;;;4.97;;
2866;SDS011;1441;48.886;8.728;2022-07-23T02:10:25;6.90;;;5.53;;
2866;SDS011;1441;48.886;8.728;2022-07-23T02:12:52;6.40;;;5.03;;
2866;SDS011;1441;48.886;8.728;2022-07-23T02:15:18;7.03;;;4.60;;
2866;SDS011;1441;48.886;8.728;2022-07-23T02:17:43;5.43;;;4.93;;
2866;SDS011;1441;48.886;8.728;2022-07-23T02:20:10;5.77;;;4.63;;
2866;SDS011;1441;48.886;8.728;2022-07-23T02:22:36;5.10;;;4.60;;
2866;SDS011;1441;48.886;8.728;2022-07-23T02:25:03;4.77;;;4.37;;
2866;SDS011;1441;48.886;8.728;2022-07-23T02:27:29;4.87;;;4.50;;
2866;SDS011;1441;48.886;8.728;2022-07-23T02:29:55;5.20;;;4.73;;
2866;SDS011;1441;48.886;8.728;2022-07-23T02:32:20;5.00;;;4.60;;
2866;SDS011;1441;48.886;8.728;2022-07-23T02:34:46;4.97;;;4.30;;
2866;SDS011;1441;48.886;8.728;2022-07-23T02:37:13;5.00;;;4.50;;
2866;SDS011;1441;48.886;8.728;2022-07-23T02:39:38;5.53;;;5.07;;
2866;SDS011;1441;48.886;8.728;2022-07-23T02:42:04;4.93;;;4.53;;
2866;SDS011;1441;48.886;8.728;2022-07-23T02:44:30;6.10;;;4.60;;
2866;SDS011;1441;48.886;8.728;2022-07-23T02:46:55;4.80;;;4.40;;
2866;SDS011;1441;48.886;8.728;2022-07-23T02:49:21;5.37;;;4.97;;
2866;SDS011;1441;48.886;8.728;2022-07-23T02:51:46;5.67;;;5.10;;
2866;SDS011;1441;48.886;8.728;2022-07-23T02:54:12;6.83;;;5.00;;
2866;SDS011;1441;48.886;8.728;2022-07-23T02:56:38;5.57;;;5.17;;
2866;SDS011;1441;48.886;8.728;2022-07-23T02:59:03;4.83;;;4.43;;
2866;SDS011;1441;48.886;8.728;2022-07-23T03:01:29;5.33;;;4.93;;
2866;SDS011;1441;48.886;8.728;2022-07-23T03:03:54;7.83;;;5.07;;
2866;SDS011;1441;48.886;8.728;2022-07-23T03:06:20;6.03;;;5.23;;
2866;SDS011;1441;48.886;8.728;2022-07-23T03:08:46;5.77;;;5.27;;
2866;SDS011;1441;48.886;8.728;2022-07-23T03:11:11;6.83;;;4.43;;
2866;SDS011;1441;48.886;8.728;2022-07-23T03:13:37;5.13;;;4.67;;
2866;SDS011;1441;48.886;8.728;2022-07-23T03:16:03;6.53;;;4.80;;
2866;SDS011;1441;48.886;8.728;2022-07-23T03:18:29;5.53;;;5.03;;
2866;SDS011;1441;48.886;8.728;2022-07-23T03:20:55;5.33;;;4.93;;
2866;SDS011;1441;48.886;8.728;2022-07-23T03:23:21;5.67;;;5.17;;
2866;SDS011;1441;48.886;8.728;2022-07-23T03:25:46;5.30;;;4.90;;
2866;SDS011;1441;48.886;8.728;2022-07-23T03:28:15;4.80;;;4.40;;
2866;SDS011;1441;48.886;8.728;2022-07-23T03:30:42;4.97;;;4.47;;
2866;SDS011;1441;48.886;8.728;2022-07-23T03:33:10;5.50;;;5.00;;
2866;SDS011;1441;48.886;8.728;2022-07-23T03:35:36;5.40;;;5.00;;
2866;SDS011;1441;48.886;8.728;2022-07-23T03:38:01;7.57;;;4.90;;
2866;SDS011;1441;48.886;8.728;2022-07-23T03:40:27;7.00;;;4.97;;
2866;SDS011;1441;48.886;8.728;2022-07-23T03:42:52;5.10;;;4.80;;
2866;SDS011;1441;48.886;8.728;2022-07-23T03:45:18;5.30;;;4.90;;
2866;SDS011;1441;48.886;8.728;2022-07-23T03:47:43;5.97;;;5.37;;
2866;SDS011;1441;48.886;8.728;2022-07-23T03:50:09;5.10;;;4.70;;
2866;SDS011;1441;48.886;8.728;2022-07-23T03:52:35;4.83;;;4.53;;
2866;SDS011;1441;48.886;8.728;2022-07-23T03:55:02;4.67;;;4.27;;
2866;SDS011;1441;48.886;8.728;2022-07-23T03:57:28;5.00;;;4.60;;
2866;SDS011;1441;48.886;8.728;2022-07-23T03:59:55;4.07;;;3.80;;
2866;SDS011;1441;48.886;8.728;2022-07-23T04:02:20;4.70;;;4.30;;
2866;SDS011;1441;48.886;8.728;2022-07-23T04:04:46;4.80;;;4.30;;
2866;SDS011;1441;48.886;8.728;2022-07-23T04:07:11;4.83;;;4.40;;
2866;SDS011;1441;48.886;8.728;2022-07-23T04:09:37;5.23;;;4.83;;
2866;SDS011;1441;48.886;8.728;2022-07-23T04:12:05;5.10;;;4.60;;
2866;SDS011;1441;48.886;8.728;2022-07-23T04:14:31;5.20;;;4.53;;
2866;SDS011;1441;48.886;8.728;2022-07-23T04:16:57;5.00;;;4.60;;
2866;SDS011;1441;48.886;8.728;2022-07-23T04:19:23;5.10;;;4.70;;
2866;SDS011;1441;48.886;8.728;2022-07-23T04:21:49;5.60;;;5.10;;
2866;SDS011;1441;48.886;8.728;2022-07-23T04:24:15;4.90;;;4.50;;
2866;SDS011;1441;48.886;8.728;2022-07-23T04:26:41;5.77;;;4.83;;
2866;SDS011;1441;48.886;8.728;2022-07-23T04:29:07;4.80;;;4.47;;
2866;SDS011;1441;48.886;8.728;2022-07-23T04:31:32;5.63;;;5.03;;
2866;SDS011;1441;48.886;8.728;2022-07-23T04:33:58;5.00;;;4.60;;
2866;SDS011;1441;48.886;8.728;2022-07-23T04:36:23;5.23;;;4.70;;
2866;SDS011;1441;48.886;8.728;2022-07-23T04:38:49;5.60;;;5.00;;
2866;SDS011;1441;48.886;8.728;2022-07-23T04:41:15;4.53;;;4.23;;
2866;SDS011;1441;48.886;8.728;2022-07-23T04:43:40;5.37;;;4.97;;
2866;SDS011;1441;48.886;8.728;2022-07-23T04:46:06;5.60;;;5.10;;
2866;SDS011;1441;48.886;8.728;2022-07-23T04:48:31;5.60;;;5.10;;
2866;SDS011;1441;48.886;8.728;2022-07-23T04:50:57;5.83;;;5.23;;
2866;SDS011;1441;48.886;8.728;2022-07-23T04:53:23;5.87;;;5.37;;
2866;SDS011;1441;48.886;8.728;2022-07-23T04:55:48;6.07;;;5.00;;
2866;SDS011;1441;48.886;8.728;2022-07-23T04:58:14;5.60;;;4.83;;
2866;SDS011;1441;48.886;8.728;2022-07-23T05:00:40;5.77;;;5.20;;
2866;SDS011;1441;48.886;8.728;2022-07-23T05:03:05;5.80;;;5.30;;
2866;SDS011;1441;48.886;8.728;2022-07-23T05:05:31;5.73;;;4.73;;
2866;SDS011;1441;48.886;8.728;2022-07-23T05:07:56;5.60;;;5.20;;
2866;SDS011;1441;48.886;8.728;2022-07-23T05:10:22;7.20;;;5.77;;
2866;SDS011;1441;48.886;8.728;2022-07-23T05:12:48;8.57;;;7.00;;
2866;SDS011;1441;48.886;8.728;2022-07-23T05:15:13;5.13;;;4.73;;
2866;SDS011;1441;48.886;8.728;2022-07-23T05:17:39;6.37;;;5.77;;
2866;SDS011;1441;48.886;8.728;2022-07-23T05:20:05;4.77;;;4.30;;
2866;SDS011;1441;48.886;8.728;2022-07-23T05:22:31;5.37;;;4.97;;
2866;SDS011;1441;48.886;8.728;2022-07-23T05:24:58;5.77;;;5.20;;
2866;SDS011;1441;48.886;8.728;2022-07-23T05:27:23;4.70;;;4.40;;
2866;SDS011;1441;48.886;8.728;2022-07-23T05:29:49;5.13;;;4.60;;
2866;SDS011;1441;48.886;8.728;2022-07-23T05:32:14;7.00;;;4.93;;
2866;SDS011;1441;48.886;8.728;2022-07-23T05:34:40;7.30;;;5.17;;
2866;SDS011;1441;48.886;8.728;2022-07-23T05:37:06;7.13;;;4.77;;
2866;SDS011;1441;48.886;8.728;2022-07-23T05:39:31;5.57;;;5.07;;
2866;SDS011;1441;48.886;8.728;2022-07-23T05:41:57;5.37;;;4.90;;
2866;SDS011;1441;48.886;8.728;2022-07-23T05:44:23;5.63;;;5.10;;
2866;SDS011;1441;48.886;8.728;2022-07-23T05:46:48;5.77;;;5.27;;
2866;SDS011;1441;48.886;8.728;2022-07-23T05:49:14;5.10;;;4.80;;
2866;SDS011;1441;48.886;8.728;2022-07-23T05:51:41;5.90;;;5.40;;
2866;SDS011;1441;48.886;8.728;2022-07-23T05:54:06;6.77;;;5.07;;
2866;SDS011;1441;48.886;8.728;2022-07-23T05:56:32;5.80;;;5.10;;
2866;SDS011;1441;48.886;8.728;2022-07-23T05:58:57;7.60;;;5.10;;
2866;SDS011;1441;48.886;8.728;2022-07-23T06:01:23;6.30;;;5.70;;
2866;SDS011;1441;48.886;8.728;2022-07-23T06:03:49;5.87;;;5.27;;
2866;SDS011;1441;48.886;8.728;2022-07-23T06:06:14;5.80;;;5.20;;
2866;SDS011;1441;48.886;8.728;2022-07-23T06:08:40;5.70;;;5.20;;
2866;SDS011;1441;48.886;8.728;2022-07-23T06:11:06;6.30;;;5.80;;
2866;SDS011;1441;48.886;8.728;2022-07-23T06:13:31;6.03;;;5.17;;
2866;SDS011;1441;48.886;8.728;2022-07-23T06:15:57;5.63;;;4.80;;
2866;SDS011;1441;48.886;8.728;2022-07-23T06:18:23;5.50;;;5.10;;
2866;SDS011;1441;48.886;8.728;2022-07-23T06:20:48;6.27;;;5.53;;
2866;SDS011;1441;48.886;8.728;2022-07-23T06:23:14;6.20;;;5.60;;
2866;SDS011;1441;48.886;8.728;2022-07-23T06:25:39;7.83;;;5.93;;
2866;SDS011;1441;48.886;8.728;2022-07-23T06:28:05;5.97;;;5.47;;
2866;SDS011;1441;48.886;8.728;2022-07-23T06:30:31;6.93;;;5.90;;
2866;SDS011;1441;48.886;8.728;2022-07-23T06:32:56;7.63;;;6.17;;
2866;SDS011;1441;48.886;8.728;2022-07-23T06:35:22;6.20;;;5.70;;
2866;SDS011;1441;48.886;8.728;2022-07-23T06:37:47;7.00;;;6.27;;
2866;SDS011;1441;48.886;8.728;2022-07-23T06:40:13;8.57;;;6.57;;
2866;SDS011;1441;48.886;8.728;2022-07-23T06:42:39;9.87;;;6.80;;
2866;SDS011;1441;48.886;8.728;2022-07-23T06:45:05;7.67;;;6.37;;
2866;SDS011;1441;48.886;8.728;2022-07-23T06:47:31;7.53;;;5.97;;
2866;SDS011;1441;48.886;8.728;2022-07-23T06:49:57;8.50;;;7.23;;
2866;SDS011;1441;48.886;8.728;2022-07-23T06:52:23;6.77;;;6.20;;
2866;SDS011;1441;48.886;8.728;2022-07-23T06:54:49;7.97;;;7.17;;
2866;SDS011;1441;48.886;8.728;2022-07-23T06:57:14;7.60;;;6.90;;
2866;SDS011;1441;48.886;8.728;2022-07-23T06:59:40;8.40;;;5.90;;
2866;SDS011;1441;48.886;8.728;2022-07-23T07:02:06;8.00;;;6.70;;
2866;SDS011;1441;48.886;8.728;2022-07-23T07:04:32;7.03;;;6.33;;
2866;SDS011;1441;48.886;8.728;2022-07-23T07:06:58;8.07;;;7.27;;
2866;SDS011;1441;48.886;8.728;2022-07-23T07:09:23;6.90;;;6.30;;
2866;SDS011;1441;48.886;8.728;2022-07-23T07:11:49;6.73;;;6.07;;
2866;SDS011;1441;48.886;8.728;2022-07-23T07:14:15;7.27;;;6.60;;
2866;SDS011;1441;48.886;8.728;2022-07-23T07:16:40;6.27;;;5.80;;
2866;SDS011;1441;48.886;8.728;2022-07-23T07:19:06;8.37;;;6.40;;
2866;SDS011;1441;48.886;8.728;2022-07-23T07:21:31;6.07;;;5.57;;
2866;SDS011;1441;48.886;8.728;2022-07-23T07:23:57;7.00;;;5.70;;
2866;SDS011;1441;48.886;8.728;2022-07-23T07:26:23;5.57;;;5.13;;
2866;SDS011;1441;48.886;8.728;2022-07-23T07:28:49;10.37;;;5.07;;
2866;SDS011;1441;48.886;8.728;2022-07-23T07:31:14;5.63;;;5.13;;
2866;SDS011;1441;48.886;8.728;2022-07-23T07:33:40;5.60;;;5.10;;
2866;SDS011;1441;48.886;8.728;2022-07-23T07:36:06;5.70;;;5.30;;
2866;SDS011;1441;48.886;8.728;2022-07-23T07:38:31;6.57;;;5.60;;
2866;SDS011;1441;48.886;8.728;2022-07-23T07:40:57;8.53;;;5.40;;
2866;SDS011;1441;48.886;8.728;2022-07-23T07:43:23;5.73;;;5.23;;
2866;SDS011;1441;48.886;8.728;2022-07-23T07:45:48;6.40;;;5.80;;
2866;SDS011;1441;48.886;8.728;2022-07-23T07:48:14;5.53;;;5.07;;
2866;SDS011;1441;48.886;8.728;2022-07-23T07:50:39;5.67;;;5.23;;
2866;SDS011;1441;48.886;8.728;2022-07-23T07:53:05;6.17;;;5.67;;
2866;SDS011;1441;48.886;8.728;2022-07-23T07:55:30;6.60;;;6.10;;
2866;SDS011;1441;48.886;8.728;2022-07-23T07:57:56;9.00;;;5.73;;
2866;SDS011;1441;48.886;8.728;2022-07-23T08:00:22;6.27;;;5.67;;
2866;SDS011;1441;48.886;8.728;2022-07-23T08:02:49;7.07;;;6.30;;
2866;SDS011;1441;48.886;8.728;2022-07-23T08:05:20;7.30;;;6.33;;
2866;SDS011;1441;48.886;8.728;2022-07-23T08:07:50;7.80;;;7.03;;
2866;SDS011;1441;48.886;8.728;2022-07-23T08:10:15;6.50;;;6.00;;
2866;SDS011;1441;48.886;8.728;2022-07-23T08:12:42;6.67;;;5.50;;
2866;SDS011;1441;48.886;8.728;2022-07-23T08:15:10;5.53;;;5.13;;
2866;SDS011;1441;48.886;8.728;2022-07-23T08:17:35;6.73;;;6.10;;
2866;SDS011;1441;48.886;8.728;2022-07-23T08:20:02;6.83;;;5.37;;
2866;SDS011;1441;48.886;8.728;2022-07-23T08:22:43;8.63;;;6.50;;
2866;SDS011;1441;48.886;8.728;2022-07-23T08:25:20;7.90;;;6.73;;
2866;SDS011;1441;48.886;8.728;2022-07-23T08:27:48;6.93;;;6.30;;
2866;SDS011;1441;48.886;8.728;2022-07-23T08:30:14;6.20;;;5.77;;
2866;SDS011;1441;48.886;8.728;2022-07-23T08:32:55;8.87;;;6.47;;
2866;SDS011;1441;48.886;8.728;2022-07-23T08:35:33;5.60;;;5.10;;
2866;SDS011;1441;48.886;8.728;2022-07-23T08:38:01;5.90;;;5.40;;
2866;SDS011;1441;48.886;8.728;2022-07-23T08:40:29;5.43;;;5.03;;
2866;SDS011;1441;48.886;8.728;2022-07-23T08:42:57;5.20;;;4.80;;
2866;SDS011;1441;48.886;8.728;2022-07-23T08:45:23;9.83;;;5.43;;
2866;SDS011;1441;48.886;8.728;2022-07-23T08:47:59;5.13;;;4.67;;
2866;SDS011;1441;48.886;8.728;2022-07-23T08:50:25;5.90;;;4.80;;
2866;SDS011;1441;48.886;8.728;2022-07-23T08:52:51;8.17;;;5.43;;
2866;SDS011;1441;48.886;8.728;2022-07-23T08:55:19;5.57;;;4.30;;
2866;SDS011;1441;48.886;8.728;2022-07-23T08:57:50;5.07;;;4.47;;
2866;SDS011;1441;48.886;8.728;2022-07-23T09:00:17;4.90;;;4.50;;
2866;SDS011;1441;48.886;8.728;2022-07-23T09:02:44;4.90;;;4.50;;
2866;SDS011;1441;48.886;8.728;2022-07-23T09:05:12;5.00;;;4.60;;
2866;SDS011;1441;48.886;8.728;2022-07-23T09:08:03;4.90;;;4.50;;
2866;SDS011;1441;48.886;8.728;2022-07-23T09:16:17;4.60;;;4.20;;
2866;SDS011;1441;48.886;8.728;2022-07-23T09:18:53;4.83;;;4.50;;
2866;SDS011;1441;48.886;8.728;2022-07-23T09:21:27;5.07;;;4.60;;
2866;SDS011;1441;48.886;8.728;2022-07-23T09:28:56;4.17;;;3.80;;
2866;SDS011;1441;48.886;8.728;2022-07-23T09:31:25;4.23;;;3.93;;
2866;SDS011;1441;48.886;8.728;2022-07-23T09:34:05;4.00;;;3.70;;
2866;SDS011;1441;48.886;8.728;2022-07-23T09:36:33;3.80;;;3.50;;
2866;SDS011;1441;48.886;8.728;2022-07-23T09:38:58;5.63;;;5.13;;
2866;SDS011;1441;48.886;8.728;2022-07-23T09:41:24;4.60;;;4.20;;
2866;SDS011;1441;48.886;8.728;2022-07-23T09:43:57;4.00;;;3.70;;
2866;SDS011;1441;48.886;8.728;2022-07-23T09:46:32;4.27;;;3.97;;
2866;SDS011;1441;48.886;8.728;2022-07-23T09:48:57;4.83;;;4.33;;
2866;SDS011;1441;48.886;8.728;2022-07-23T09:51:23;4.83;;;4.30;;
2866;SDS011;1441;48.886;8.728;2022-07-23T09:54:01;4.83;;;4.30;;
2866;SDS011;1441;48.886;8.728;2022-07-23T09:56:28;3.80;;;3.50;;
2866;SDS011;1441;48.886;8.728;2022-07-23T09:58:54;10.60;;;4.10;;
2866;SDS011;1441;48.886;8.728;2022-07-23T10:01:31;18.80;;;4.30;;
2866;SDS011;1441;48.886;8.728;2022-07-23T10:03:58;4.10;;;3.80;;
2866;SDS011;1441;48.886;8.728;2022-07-23T10:06:25;4.00;;;3.77;;
2866;SDS011;1441;48.886;8.728;2022-07-23T10:08:52;3.70;;;3.50;;
2866;SDS011;1441;48.886;8.728;2022-07-23T10:11:23;4.13;;;3.80;;
2866;SDS011;1441;48.886;8.728;2022-07-23T10:13:49;6.13;;;3.50;;
2866;SDS011;1441;48.886;8.728;2022-07-23T10:16:20;3.23;;;3.03;;
2866;SDS011;1441;48.886;8.728;2022-07-23T10:18:46;4.20;;;3.80;;
2866;SDS011;1441;48.886;8.728;2022-07-23T10:21:12;3.70;;;3.50;;
2866;SDS011;1441;48.886;8.728;2022-07-23T10:23:47;4.43;;;4.03;;
2866;SDS011;1441;48.886;8.728;2022-07-23T10:26:38;4.77;;;4.40;;
2866;SDS011;1441;48.886;8.728;2022-07-23T10:29:19;4.10;;;3.90;;
2866;SDS011;1441;48.886;8.728;2022-07-23T10:34:36;4.73;;;4.33;;
2866;SDS011;1441;48.886;8.728;2022-07-23T10:37:14;5.87;;;4.30;;
2866;SDS011;1441;48.886;8.728;2022-07-23T10:42:35;4.80;;;4.50;;
2866;SDS011;1441;48.886;8.728;2022-07-23T10:45:01;3.60;;;3.30;;
2866;SDS011;1441;48.886;8.728;2022-07-23T10:50:43;5.07;;;4.67;;
2866;SDS011;1441;48.886;8.728;2022-07-23T10:53:14;4.90;;;4.40;;
2866;SDS011;1441;48.886;8.728;2022-07-23T10:55:51;4.30;;;4.00;;
2866;SDS011;1441;48.886;8.728;2022-07-23T10:58:21;4.47;;;4.07;;
2866;SDS011;1441;48.886;8.728;2022-07-23T11:00:58;4.10;;;3.80;;
2866;SDS011;1441;48.886;8.728;2022-07-23T11:03:35;4.73;;;4.33;;
2866;SDS011;1441;48.886;8.728;2022-07-23T11:06:02;4.47;;;4.27;;
2866;SDS011;1441;48.886;8.728;2022-07-23T11:08:28;9.10;;;4.80;;
2866;SDS011;1441;48.886;8.728;2022-07-23T11:10:55;4.07;;;3.77;;
2866;SDS011;1441;48.886;8.728;2022-07-23T11:13:28;5.10;;;4.70;;
2866;SDS011;1441;48.886;8.728;2022-07-23T11:26:47;6.43;;;4.00;;
2866;SDS011;1441;48.886;8.728;2022-07-23T11:37:04;5.50;;;5.00;;
2866;SDS011;1441;48.886;8.728;2022-07-23T11:39:32;4.63;;;4.33;;
2866;SDS011;1441;48.886;8.728;2022-07-23T11:41:59;4.83;;;4.40;;
2866;SDS011;1441;48.886;8.728;2022-07-23T11:46:59;4.60;;;4.30;;
2866;SDS011;1441;48.886;8.728;2022-07-23T11:49:25;6.50;;;4.57;;
2866;SDS011;1441;48.886;8.728;2022-07-23T11:52:07;7.60;;;4.90;;
2866;SDS011;1441;48.886;8.728;2022-07-23T11:54:47;4.60;;;4.30;;
2866;SDS011;1441;48.886;8.728;2022-07-23T11:57:19;4.87;;;4.47;;
2866;SDS011;1441;48.886;8.728;2022-07-23T11:59:51;5.03;;;4.70;;
2866;SDS011;1441;48.886;8.728;2022-07-23T12:02:20;5.50;;;5.20;;
2866;SDS011;1441;48.886;8.728;2022-07-23T12:04:47;5.27;;;4.97;;
2866;SDS011;1441;48.886;8.728;2022-07-23T12:09:49;6.43;;;4.80;;
2866;SDS011;1441;48.886;8.728;2022-07-23T12:12:14;4.77;;;4.30;;
2866;SDS011;1441;48.886;8.728;2022-07-23T12:14:47;4.57;;;4.27;;
2866;SDS011;1441;48.886;8.728;2022-07-23T12:17:18;5.23;;;4.93;;
2866;SDS011;1441;48.886;8.728;2022-07-23T12:19:45;5.50;;;5.00;;
2866;SDS011;1441;48.886;8.728;2022-07-23T12:22:11;4.93;;;4.63;;
2866;SDS011;1441;48.886;8.728;2022-07-23T12:27:24;5.67;;;5.23;;
2866;SDS011;1441;48.886;8.728;2022-07-23T12:29:51;5.07;;;4.67;;
2866;SDS011;1441;48.886;8.728;2022-07-23T12:32:21;8.07;;;5.10;;
2866;SDS011;1441;48.886;8.728;2022-07-23T12:35:06;11.60;;;5.10;;
2866;SDS011;1441;48.886;8.728;2022-07-23T12:37:37;4.90;;;4.43;;
2866;SDS011;1441;48.886;8.728;2022-07-23T12:42:52;4.07;;;3.67;;
2866;SDS011;1441;48.886;8.728;2022-07-23T12:45:19;4.37;;;3.90;;
2866;SDS011;1441;48.886;8.728;2022-07-23T12:53:15;4.73;;;4.20;;
2866;SDS011;1441;48.886;8.728;2022-07-23T12:55:50;5.43;;;4.70;;
2866;SDS011;1441;48.886;8.728;2022-07-23T12:58:23;4.67;;;3.80;;
2866;SDS011;1441;48.886;8.728;2022-07-23T13:03:21;4.60;;;4.30;;
2866;SDS011;1441;48.886;8.728;2022-07-23T13:05:52;5.10;;;4.70;;
2866;SDS011;1441;48.886;8.728;2022-07-23T13:08:17;6.10;;;4.83;;
2866;SDS011;1441;48.886;8.728;2022-07-23T13:10:43;5.50;;;4.83;;
2866;SDS011;1441;48.886;8.728;2022-07-23T13:13:12;4.60;;;4.33;;
2866;SDS011;1441;48.886;8.728;2022-07-23T13:15:38;4.70;;;4.30;;
2866;SDS011;1441;48.886;8.728;2022-07-23T13:18:03;6.43;;;4.63;;
2866;SDS011;1441;48.886;8.728;2022-07-23T13:20:29;4.77;;;4.47;;
2866;SDS011;1441;48.886;8.728;2022-07-23T13:22:56;5.00;;;4.50;;
2866;SDS011;1441;48.886;8.728;2022-07-23T13:25:22;7.67;;;4.27;;
2866;SDS011;1441;48.886;8.728;2022-07-23T13:27:48;4.97;;;4.53;;
2866;SDS011;1441;48.886;8.728;2022-07-23T13:30:13;5.50;;;4.33;;
2866;SDS011;1441;48.886;8.728;2022-07-23T13:32:40;5.33;;;4.70;;
2866;SDS011;1441;48.886;8.728;2022-07-23T13:35:05;5.17;;;4.60;;
2866;SDS011;1441;48.886;8.728;2022-07-23T13:37:31;4.90;;;4.60;;
2866;SDS011;1441;48.886;8.728;2022-07-23T13:39:57;6.40;;;5.03;;
2866;SDS011;1441;48.886;8.728;2022-07-23T13:42:23;5.20;;;4.80;;
2866;SDS011;1441;48.886;8.728;2022-07-23T13:44:48;4.60;;;4.30;;
2866;SDS011;1441;48.886;8.728;2022-07-23T13:47:14;6.27;;;4.80;;
2866;SDS011;1441;48.886;8.728;2022-07-23T13:49:39;4.77;;;4.37;;
2866;SDS011;1441;48.886;8.728;2022-07-23T13:52:05;6.03;;;5.53;;
2866;SDS011;1441;48.886;8.728;2022-07-23T13:54:31;9.40;;;5.07;;
2866;SDS011;1441;48.886;8.728;2022-07-23T13:56:56;14.17;;;4.60;;
2866;SDS011;1441;48.886;8.728;2022-07-23T13:59:22;18.70;;;5.60;;
2866;SDS011;1441;48.886;8.728;2022-07-23T14:01:47;12.00;;;5.23;;
2866;SDS011;1441;48.886;8.728;2022-07-23T14:04:13;5.17;;;4.67;;
2866;SDS011;1441;48.886;8.728;2022-07-23T14:06:39;14.27;;;4.47;;
2866;SDS011;1441;48.886;8.728;2022-07-23T14:09:04;22.60;;;5.60;;
2866;SDS011;1441;48.886;8.728;2022-07-23T14:11:30;5.50;;;5.10;;
2866;SDS011;1441;48.886;8.728;2022-07-23T14:13:56;8.07;;;5.50;;
2866;SDS011;1441;48.886;8.728;2022-07-23T14:16:23;6.03;;;4.97;;
2866;SDS011;1441;48.886;8.728;2022-07-23T14:18:49;6.93;;;5.37;;
2866;SDS011;1441;48.886;8.728;2022-07-23T14:21:14;8.83;;;5.20;;
2866;SDS011;1441;48.886;8.728;2022-07-23T14:23:40;6.77;;;6.20;;
2866;SDS011;1441;48.886;8.728;2022-07-23T14:26:06;6.27;;;5.67;;
2866;SDS011;1441;48.886;8.728;2022-07-23T14:28:34;6.97;;;5.40;;
2866;SDS011;1441;48.886;8.728;2022-07-23T14:31:00;10.33;;;5.77;;
2866;SDS011;1441;48.886;8.728;2022-07-23T14:33:25;5.57;;;5.13;;
2866;SDS011;1441;48.886;8.728;2022-07-23T14:35:51;5.97;;;5.53;;
2866;SDS011;1441;48.886;8.728;2022-07-23T14:38:17;5.67;;;5.27;;
2866;SDS011;1441;48.886;8.728;2022-07-23T14:40:42;7.17;;;5.70;;
2866;SDS011;1441;48.886;8.728;2022-07-23T14:43:08;5.40;;;5.00;;
2866;SDS011;1441;48.886;8.728;2022-07-23T14:45:34;5.50;;;5.00;;
2866;SDS011;1441;48.886;8.728;2022-07-23T14:47:59;7.00;;;6.40;;
2866;SDS011;1441;48.886;8.728;2022-07-23T14:50:27;6.00;;;5.30;;
2866;SDS011;1441;48.886;8.728;2022-07-23T14:52:53;10.40;;;5.57;;
2866;SDS011;1441;48.886;8.728;2022-07-23T14:55:18;5.50;;;5.10;;
2866;SDS011;1441;48.886;8.728;2022-07-23T14:57:44;5.87;;;5.43;;
2866;SDS011;1441;48.886;8.728;2022-07-23T15:00:10;6.37;;;5.87;;
2866;SDS011;1441;48.886;8.728;2022-07-23T15:02:36;6.30;;;5.80;;
2866;SDS011;1441;48.886;8.728;2022-07-23T15:05:01;6.70;;;5.90;;
2866;SDS011;1441;48.886;8.728;2022-07-23T15:07:28;8.03;;;5.83;;
2866;SDS011;1441;48.886;8.728;2022-07-23T15:09:55;7.10;;;5.60;;
2866;SDS011;1441;48.886;8.728;2022-07-23T15:12:23;6.10;;;5.60;;
2866;SDS011;1441;48.886;8.728;2022-07-23T15:14:49;6.40;;;5.97;;
2866;SDS011;1441;48.886;8.728;2022-07-23T15:17:15;6.03;;;5.60;;
2866;SDS011;1441;48.886;8.728;2022-07-23T15:19:40;8.10;;;6.20;;
2866;SDS011;1441;48.886;8.728;2022-07-23T15:22:06;5.80;;;5.40;;
2866;SDS011;1441;48.886;8.728;2022-07-23T15:24:32;6.23;;;5.67;;
2866;SDS011;1441;48.886;8.728;2022-07-23T15:26:58;5.77;;;5.27;;
2866;SDS011;1441;48.886;8.728;2022-07-23T15:29:24;6.50;;;5.83;;
2866;SDS011;1441;48.886;8.728;2022-07-23T15:31:49;7.20;;;5.53;;
2866;SDS011;1441;48.886;8.728;2022-07-23T15:34:15;5.77;;;5.37;;
2866;SDS011;1441;48.886;8.728;2022-07-23T15:36:41;5.83;;;5.37;;
2866;SDS011;1441;48.886;8.728;2022-07-23T15:39:07;6.00;;;5.47;;
2866;SDS011;1441;48.886;8.728;2022-07-23T15:41:33;8.00;;;5.50;;
2866;SDS011;1441;48.886;8.728;2022-07-23T15:43:58;6.73;;;5.60;;
2866;SDS011;1441;48.886;8.728;2022-07-23T15:46:24;7.03;;;6.37;;
2866;SDS011;1441;48.886;8.728;2022-07-23T15:48:50;11.13;;;6.60;;
2866;SDS011;1441;48.886;8.728;2022-07-23T15:51:15;6.97;;;6.33;;
2866;SDS011;1441;48.886;8.728;2022-07-23T15:53:41;7.23;;;6.13;;
2866;SDS011;1441;48.886;8.728;2022-07-23T15:56:08;6.50;;;6.00;;
2866;SDS011;1441;48.886;8.728;2022-07-23T15:58:34;7.80;;;7.10;;
2866;SDS011;1441;48.886;8.728;2022-07-23T16:01:00;6.43;;;5.83;;
2866;SDS011;1441;48.886;8.728;2022-07-23T16:03:31;22.33;;;6.33;;
2866;SDS011;1441;48.886;8.728;2022-07-23T16:05:58;7.57;;;6.83;;
2866;SDS011;1441;48.886;8.728;2022-07-23T16:08:24;6.80;;;5.87;;
2866;SDS011;1441;48.886;8.728;2022-07-23T16:10:49;7.93;;;6.80;;